Time;durP1;ratioP1;P1;durP2;ratioP2;P2;SDS_P1;SDS_P2;PMS_P1;PMS_P2;Temp;Humidity;BMP_temperature;BMP_pressure;BME280_temperature;BME280_humidity;BME280_pressure;Samples;Min_cycle;Max_cycle;Signal;HPM_P1;HPM_P2
2021/12/19 00:00:19;;;;;;;29.10;15.27;;;;;;;3.40;100.00;101180.41;4944014;28;20397;-62
2021/12/19 00:10:22;;;;;;;39.65;18.08;;;;;;;3.45;100.00;101182.59;4952431;28;20085;-62
2021/12/19 00:12:47;;;;;;;32.25;17.20;;;;;;;3.42;100.00;101175.78;4959370;28;20413;-63
2021/12/19 00:15:13;;;;;;;41.45;18.55;;;;;;;3.49;100.00;101175.19;4952616;28;20302;-63
2021/12/19 00:17:38;;;;;;;35.58;17.52;;;;;;;3.47;100.00;101175.34;4954340;28;20050;-63
2021/12/19 00:20:04;;;;;;;42.60;19.70;;;;;;;3.46;100.00;101169.19;4958730;28;20035;-62
2021/12/19 00:22:31;;;;;;;37.03;17.65;;;;;;;3.51;100.00;101171.41;4952722;28;20050;-62
2021/12/19 00:24:56;;;;;;;30.77;15.10;;;;;;;3.53;100.00;101158.84;4955922;28;20034;-62
2021/12/19 00:27:22;;;;;;;34.10;15.32;;;;;;;3.48;100.00;101166.41;4949031;28;20039;-62
2021/12/19 00:29:47;;;;;;;37.63;16.10;;;;;;;3.48;100.00;101166.41;4954001;28;20097;-62
2021/12/19 00:32:13;;;;;;;42.10;17.10;;;;;;;3.52;100.00;101165.13;4948024;28;20046;-62
2021/12/19 00:34:38;;;;;;;43.20;17.88;;;;;;;3.48;100.00;101152.31;4957754;28;20038;-62
2021/12/19 00:37:03;;;;;;;45.70;22.08;;;;;;;3.41;100.00;101152.91;4951246;28;20059;-62
2021/12/19 00:39:30;;;;;;;38.22;19.35;;;;;;;3.42;100.00;101148.41;4932401;28;20475;-62
2021/12/19 00:41:55;;;;;;;37.60;16.60;;;;;;;3.40;100.00;101151.25;4954072;28;20043;-62
2021/12/19 00:44:25;;;;;;;36.80;17.73;;;;;;;3.49;100.00;101154.81;4957688;28;20117;-62
2021/12/19 00:46:53;;;;;;;37.65;18.48;;;;;;;3.40;100.00;101143.28;4955966;28;20058;-62
2021/12/19 00:49:20;;;;;;;36.88;18.90;;;;;;;3.39;100.00;101140.78;4953040;28;20059;-62
2021/12/19 00:51:45;;;;;;;32.47;16.58;;;;;;;3.40;100.00;101140.63;4952093;28;20141;-61
2021/12/19 00:54:11;;;;;;;32.13;16.88;;;;;;;3.43;100.00;101150.09;4952235;28;20143;-61
2021/12/19 00:56:38;;;;;;;33.63;17.10;;;;;;;3.41;100.00;101144.13;4949662;28;20042;-61
2021/12/19 00:59:03;;;;;;;39.85;20.02;;;;;;;3.33;100.00;101141.38;4949049;28;20473;-62
2021/12/19 01:01:29;;;;;;;36.25;17.90;;;;;;;3.29;100.00;101140.81;4942894;28;20146;-61
2021/12/19 01:03:54;;;;;;;38.42;19.40;;;;;;;3.29;100.00;101132.03;4946751;28;20054;-61
2021/12/19 01:06:20;;;;;;;39.83;18.67;;;;;;;3.24;100.00;101136.00;4948181;28;20623;-61
2021/12/19 01:08:47;;;;;;;35.17;16.13;;;;;;;3.34;100.00;101132.44;4945820;28;20039;-60
2021/12/19 01:11:12;;;;;;;30.48;15.70;;;;;;;3.28;100.00;101131.22;4947257;28;20401;-62
2021/12/19 01:13:37;;;;;;;27.50;13.27;;;;;;;3.27;100.00;101124.25;4953270;28;20093;-60
2021/12/19 01:16:03;;;;;;;26.63;12.55;;;;;;;3.33;100.00;101126.31;4949441;28;20095;-61
2021/12/19 01:18:28;;;;;;;25.77;13.65;;;;;;;3.32;100.00;101124.66;4950347;28;20041;-60
2021/12/19 01:20:54;;;;;;;27.98;14.43;;;;;;;3.38;100.00;101131.16;4961404;28;20447;-60
2021/12/19 01:23:21;;;;;;;26.77;13.82;;;;;;;3.38;100.00;101125.88;4953427;28;20374;-60
2021/12/19 01:25:48;;;;;;;24.85;12.57;;;;;;;3.44;100.00;101133.19;4953634;28;20390;-60
2021/12/19 01:28:13;;;;;;;29.50;12.88;;;;;;;3.49;100.00;101125.63;4954979;28;20038;-60
2021/12/19 01:30:40;;;;;;;27.70;12.50;;;;;;;3.44;100.00;101133.19;4958026;28;20047;-60
2021/12/19 01:33:05;;;;;;;22.60;10.98;;;;;;;3.47;100.00;101127.63;4951398;28;20354;-60
2021/12/19 01:35:31;;;;;;;22.30;11.50;;;;;;;3.39;100.00;101123.03;4950483;28;20130;-61
2021/12/19 01:37:56;;;;;;;20.90;10.40;;;;;;;3.51;100.00;101123.66;4955457;28;20057;-61
2021/12/19 01:40:22;;;;;;;23.60;11.43;;;;;;;3.48;100.00;101131.09;4954467;28;20051;-60
2021/12/19 01:42:49;;;;;;;24.88;12.43;;;;;;;3.51;100.00;101128.16;4958798;28;20036;-62
2021/12/19 01:45:21;;;;;;;25.30;12.02;;;;;;;3.47;100.00;101130.28;4958444;28;20490;-61
2021/12/19 01:47:47;;;;;;;25.20;11.32;;;;;;;3.34;100.00;101113.88;4955801;28;20035;-62
2021/12/19 01:50:12;;;;;;;23.58;11.43;;;;;;;3.34;100.00;101127.97;4954857;28;20346;-62
2021/12/19 01:52:38;;;;;;;25.65;11.65;;;;;;;3.30;100.00;101125.78;4954461;28;20276;-62
2021/12/19 01:55:04;;;;;;;22.27;10.85;;;;;;;3.32;100.00;101115.84;4954625;28;20478;-63
2021/12/19 01:57:29;;;;;;;24.73;11.38;;;;;;;3.37;100.00;101105.63;4954431;28;20027;-62
2021/12/19 01:59:55;;;;;;;22.92;11.50;;;;;;;3.38;100.00;101116.09;4952466;28;20042;-62
2021/12/19 02:02:21;;;;;;;26.17;12.25;;;;;;;3.37;100.00;101121.53;4949976;28;20046;-62
2021/12/19 02:04:46;;;;;;;24.95;12.10;;;;;;;3.40;100.00;101100.03;4953776;28;20042;-60
2021/12/19 02:07:12;;;;;;;23.55;10.13;;;;;;;3.20;100.00;101105.47;4954057;28;20049;-62
2021/12/19 02:09:39;;;;;;;24.35;12.10;;;;;;;3.33;100.00;101104.28;4961532;28;20085;-60
2021/12/19 02:12:04;;;;;;;29.90;12.80;;;;;;;3.34;100.00;101100.63;4949650;28;20054;-60
2021/12/19 02:14:30;;;;;;;26.75;13.57;;;;;;;3.37;100.00;101100.31;4962078;28;20039;-60
2021/12/19 02:16:55;;;;;;;25.23;12.38;;;;;;;3.38;100.00;101091.41;4955673;28;20070;-60
2021/12/19 02:19:21;;;;;;;29.35;12.50;;;;;;;3.36;100.00;101088.91;4948518;28;20039;-62
2021/12/19 02:21:47;;;;;;;32.38;13.50;;;;;;;3.42;100.00;101082.16;4954525;28;20073;-60
2021/12/19 02:24:12;;;;;;;24.60;12.52;;;;;;;3.40;100.00;101084.13;4951329;28;20114;-60
2021/12/19 02:26:38;;;;;;;27.10;11.90;;;;;;;3.39;100.00;101090.41;4949895;28;20054;-60
2021/12/19 02:29:04;;;;;;;24.55;13.15;;;;;;;3.44;100.00;101088.13;4947815;28;20038;-60
2021/12/19 02:31:30;;;;;;;28.58;12.43;;;;;;;3.43;100.00;101079.34;4956198;28;20047;-63
2021/12/19 02:34:10;;;;;;;29.25;13.15;;;;;;;3.45;100.00;101080.03;4957832;28;20235;-62
2021/12/19 02:49:47;;;;;;;41.85;15.77;;;;;;;3.37;100.00;101055.25;4952168;28;21208;-62
2021/12/19 02:52:14;;;;;;;29.73;14.23;;;;;;;3.48;100.00;101052.41;4969302;28;20035;-62
2021/12/19 02:54:39;;;;;;;34.83;15.60;;;;;;;3.48;100.00;101055.06;4955665;28;20027;-62
2021/12/19 02:57:05;;;;;;;32.22;14.55;;;;;;;3.52;100.00;101055.56;4954119;28;20046;-62
2021/12/19 02:59:31;;;;;;;34.03;15.13;;;;;;;3.50;100.00;101045.13;4950070;28;20031;-62
2021/12/19 03:01:57;;;;;;;36.60;15.32;;;;;;;3.54;100.00;101049.13;4955834;28;20039;-61
2021/12/19 03:04:22;;;;;;;33.47;15.45;;;;;;;3.48;100.00;101047.09;4955007;28;20023;-61
2021/12/19 03:06:48;;;;;;;34.80;16.27;;;;;;;3.52;100.00;101048.47;4935890;28;20039;-61
2021/12/19 03:09:18;;;;;;;35.63;15.95;;;;;;;3.55;100.00;101044.69;4954561;28;20081;-61
2021/12/19 03:12:04;;;;;;;34.95;16.92;;;;;;;3.72;100.00;101053.59;4952423;28;20440;-61
2021/12/19 03:19:59;;;;;;;37.88;17.17;;;;;;;3.68;100.00;101045.94;4947699;28;20069;-62
2021/12/19 03:22:24;;;;;;;38.75;16.17;;;;;;;3.73;100.00;101047.31;4955582;28;20035;-61
2021/12/19 03:24:50;;;;;;;25.85;11.88;;;;;;;3.78;100.00;101040.56;4951452;28;20031;-61
2021/12/19 03:27:15;;;;;;;34.33;14.88;;;;;;;3.85;100.00;101038.97;4950144;28;20039;-61
2021/12/19 03:29:41;;;;;;;32.33;14.70;;;;;;;3.82;100.00;101038.41;4955850;28;20037;-61
2021/12/19 03:32:06;;;;;;;33.45;16.92;;;;;;;3.85;100.00;101032.81;4955286;28;20046;-61
2021/12/19 03:34:34;;;;;;;37.88;17.95;;;;;;;3.86;100.00;101026.53;4948990;28;20031;-61
2021/12/19 03:36:59;;;;;;;34.70;16.50;;;;;;;3.80;100.00;101027.16;4957085;28;20071;-61
2021/12/19 03:39:27;;;;;;;40.83;17.75;;;;;;;3.80;100.00;101029.81;4954468;28;20062;-61
2021/12/19 03:41:55;;;;;;;36.03;16.85;;;;;;;3.77;100.00;101023.00;4954035;28;20043;-61
2021/12/19 03:44:20;;;;;;;38.83;18.10;;;;;;;3.88;100.00;101029.84;4951217;28;20035;-61
2021/12/19 03:46:45;;;;;;;42.75;19.20;;;;;;;3.88;100.00;101024.56;4952967;28;20553;-61
2021/12/19 03:49:11;;;;;;;40.33;18.48;;;;;;;3.89;100.00;101026.19;4952831;28;20042;-61
2021/12/19 03:51:37;;;;;;;25.38;11.48;;;;;;;4.05;100.00;101013.06;4960125;28;20046;-61
2021/12/19 03:54:02;;;;;;;38.95;17.23;;;;;;;3.91;100.00;101021.59;4954951;28;20046;-61
2021/12/19 03:56:27;;;;;;;32.95;15.10;;;;;;;4.04;100.00;101013.22;4953152;28;20090;-61
2021/12/19 03:58:54;;;;;;;40.78;18.67;;;;;;;4.02;100.00;101005.41;4950876;28;20505;-61
2021/12/19 04:01:19;;;;;;;36.65;17.20;;;;;;;3.95;100.00;101012.34;4949528;28;20358;-61
2021/12/19 04:03:46;;;;;;;42.08;17.40;;;;;;;3.96;100.00;101006.03;4949810;28;20054;-61
2021/12/19 04:06:11;;;;;;;41.05;17.48;;;;;;;3.93;100.00;101003.69;4943161;28;20039;-61
2021/12/19 04:08:36;;;;;;;41.03;18.52;;;;;;;4.00;100.00;101007.38;4951485;28;20038;-61
2021/12/19 04:11:02;;;;;;;39.58;16.50;;;;;;;4.07;100.00;101008.44;4953278;28;20568;-61
2021/12/19 04:13:27;;;;;;;42.65;17.20;;;;;;;4.04;100.00;101010.56;4949875;28;20525;-60
2021/12/19 04:15:53;;;;;;;33.78;16.02;;;;;;;4.01;100.00;101003.75;4945198;28;20742;-61
2021/12/19 04:18:18;;;;;;;36.97;15.80;;;;;;;4.05;100.00;100999.78;4957160;28;20054;-61
2021/12/19 04:20:44;;;;;;;44.53;17.17;;;;;;;4.03;100.00;100990.31;4948261;28;20785;-61
2021/12/19 04:23:09;;;;;;;39.53;16.52;;;;;;;4.08;100.00;100986.22;4951819;28;20559;-61
2021/12/19 04:25:35;;;;;;;38.00;17.13;;;;;;;4.17;100.00;100986.25;4955887;28;20047;-61
2021/12/19 04:28:00;;;;;;;40.95;19.17;;;;;;;4.03;100.00;100983.19;4954013;28;20549;-61
2021/12/19 04:30:26;;;;;;;40.40;17.65;;;;;;;4.04;100.00;100976.06;4949924;28;20058;-61
2021/12/19 04:33:05;;;;;;;47.92;21.40;;;;;;;4.04;100.00;100976.91;4952214;28;20138;-60
2021/12/19 04:35:33;;;;;;;48.45;19.08;;;;;;;4.10;100.00;100970.97;4952689;28;20051;-61
2021/12/19 05:00:04;;;;;;;61.58;21.27;;;;;;;4.15;100.00;100940.47;4949018;28;20065;-61
2021/12/19 05:15:28;;;;;;;51.97;17.55;;;;;;;4.15;100.00;100930.69;4949783;28;20185;-62
2021/12/19 05:17:55;;;;;;;43.45;15.88;;;;;;;4.13;100.00;100923.88;4951205;28;20038;-62
2021/12/19 05:20:25;;;;;;;32.65;13.90;;;;;;;4.15;100.00;100920.06;4945712;28;20087;-63
2021/12/19 05:22:54;;;;;;;42.35;14.98;;;;;;;4.20;100.00;100920.44;4952876;28;20030;-61
2021/12/19 05:25:20;;;;;;;45.50;14.57;;;;;;;4.19;100.00;100912.59;4949036;28;20092;-61
2021/12/19 05:27:48;;;;;;;39.08;14.13;;;;;;;4.18;100.00;100908.31;4948762;28;20312;-60
2021/12/19 05:30:14;;;;;;;27.15;11.48;;;;;;;4.16;100.00;100913.75;4945971;28;20031;-61
2021/12/19 05:32:43;;;;;;;25.38;11.05;;;;;;;4.16;100.00;100910.28;4957674;28;20046;-61
2021/12/19 05:35:10;;;;;;;22.60;9.40;;;;;;;4.15;100.00;100911.28;4950996;28;20030;-62
2021/12/19 05:45:49;;;;;;;19.80;8.75;;;;;;;4.17;100.00;100917.25;4946690;28;20042;-61
2021/12/19 05:48:14;;;;;;;22.65;9.18;;;;;;;4.07;100.00;100918.22;4948696;28;20118;-61
2021/12/19 05:50:40;;;;;;;22.75;8.88;;;;;;;4.13;100.00;100918.56;4947930;28;20065;-61
2021/12/19 05:53:05;;;;;;;19.52;7.95;;;;;;;4.06;100.00;100919.19;4955786;28;20031;-61
2021/12/19 05:55:31;;;;;;;23.17;9.60;;;;;;;4.08;100.00;100925.16;4952926;28;20391;-61
2021/12/19 05:57:56;;;;;;;28.48;11.00;;;;;;;4.04;100.00;100921.19;4947982;28;20193;-61
2021/12/19 06:00:22;;;;;;;23.33;9.13;;;;;;;4.02;100.00;100920.50;4945818;28;20443;-61
2021/12/19 06:02:47;;;;;;;26.02;9.73;;;;;;;3.98;100.00;100924.47;4946611;28;20409;-61
2021/12/19 06:05:13;;;;;;;24.15;9.77;;;;;;;3.98;100.00;100919.16;4947613;28;20437;-61
2021/12/19 06:07:39;;;;;;;23.63;9.98;;;;;;;4.03;100.00;100910.72;4955613;28;20102;-61
2021/12/19 06:10:04;;;;;;;21.75;9.35;;;;;;;4.02;100.00;100915.22;4955394;28;20442;-61
2021/12/19 06:12:31;;;;;;;23.38;9.38;;;;;;;3.98;100.00;100910.38;4951853;28;20046;-61
2021/12/19 06:14:57;;;;;;;24.77;10.02;;;;;;;3.96;100.00;100909.69;4953119;28;20035;-61
2021/12/19 06:17:22;;;;;;;21.40;10.00;;;;;;;3.94;100.00;100907.19;4907327;28;1139529;-61
2021/12/19 06:19:48;;;;;;;23.33;9.38;;;;;;;3.91;100.00;100896.91;4949142;28;20043;-61
2021/12/19 06:22:13;;;;;;;27.05;11.25;;;;;;;3.91;100.00;100901.38;4954273;28;20170;-61
2021/12/19 06:24:38;;;;;;;28.15;14.73;;;;;;;3.90;100.00;100900.56;4951656;28;20035;-61
2021/12/19 06:27:04;;;;;;;27.63;12.07;;;;;;;3.95;100.00;100900.91;4963361;28;20725;-61
2021/12/19 06:29:30;;;;;;;23.00;9.52;;;;;;;3.88;100.00;100891.91;4951305;28;20665;-61
2021/12/19 06:31:55;;;;;;;30.33;14.45;;;;;;;3.91;100.00;100899.56;4956496;28;20047;-61
2021/12/19 06:34:21;;;;;;;29.42;11.60;;;;;;;3.93;100.00;100897.56;4954125;28;20043;-61
2021/12/19 06:36:46;;;;;;;24.95;9.98;;;;;;;3.94;100.00;100895.75;4952602;28;20279;-61
2021/12/19 06:39:12;;;;;;;31.20;12.43;;;;;;;3.87;100.00;100896.41;4951735;28;20039;-61
2021/12/19 06:41:37;;;;;;;28.05;11.80;;;;;;;3.92;100.00;100898.59;4956415;28;20039;-61
2021/12/19 06:44:05;;;;;;;30.50;12.45;;;;;;;3.85;100.00;100902.84;4953205;28;20039;-61
2021/12/19 06:46:31;;;;;;;31.90;13.85;;;;;;;3.88;100.00;100894.56;4959340;28;20315;-61
2021/12/19 06:48:56;;;;;;;23.55;9.55;;;;;;;4.01;100.00;100892.31;4953159;28;20629;-61
2021/12/19 06:51:22;;;;;;;27.15;12.05;;;;;;;3.95;100.00;100902.75;4953955;28;20050;-61
2021/12/19 06:53:47;;;;;;;30.50;13.57;;;;;;;3.89;100.00;100899.72;4956514;28;20031;-61
2021/12/19 06:56:13;;;;;;;30.25;10.10;;;;;;;3.91;100.00;100894.25;4950374;28;20057;-61
2021/12/19 06:58:39;;;;;;;28.33;11.30;;;;;;;3.84;100.00;100885.25;4953867;28;20389;-61
2021/12/19 07:01:04;;;;;;;29.92;11.77;;;;;;;3.88;100.00;100887.44;4953177;28;20047;-61
2021/12/19 07:03:30;;;;;;;25.73;11.77;;;;;;;3.89;100.00;100888.25;4956413;28;20401;-61
2021/12/19 07:05:55;;;;;;;30.83;12.60;;;;;;;3.83;100.00;100881.78;4955833;28;20054;-63
2021/12/19 07:08:21;;;;;;;26.90;11.38;;;;;;;3.82;100.00;100873.97;4958575;28;20042;-61
2021/12/19 07:10:47;;;;;;;29.27;11.77;;;;;;;3.91;100.00;100874.84;4950053;28;20058;-62
2021/12/19 07:13:18;;;;;;;33.97;14.80;;;;;;;3.92;100.00;100877.34;4946983;28;20067;-61
2021/12/19 07:15:44;;;;;;;28.48;11.60;;;;;;;3.88;100.00;100881.31;4954664;28;20059;-61
2021/12/19 07:18:09;;;;;;;29.58;11.23;;;;;;;3.97;100.00;100885.66;4955702;28;20134;-61
2021/12/19 07:20:35;;;;;;;30.75;13.65;;;;;;;3.86;100.00;100872.66;4953146;28;20047;-61
2021/12/19 07:23:01;;;;;;;28.15;12.38;;;;;;;3.88;100.00;100868.03;4956873;28;20523;-61
2021/12/19 07:25:26;;;;;;;32.85;13.00;;;;;;;3.93;100.00;100871.06;4958340;28;20047;-61
2021/12/19 07:27:52;;;;;;;32.03;12.13;;;;;;;3.99;100.00;100878.34;4951823;28;20454;-61
2021/12/19 07:30:17;;;;;;;32.10;12.50;;;;;;;3.98;100.00;100874.06;4947963;28;20359;-61
2021/12/19 07:32:43;;;;;;;34.35;13.02;;;;;;;3.94;100.00;100875.34;4952846;28;20085;-61
2021/12/19 07:35:10;;;;;;;28.70;12.00;;;;;;;3.91;100.00;100870.38;4957892;28;20041;-61
2021/12/19 07:37:37;;;;;;;36.33;12.80;;;;;;;3.90;100.00;100879.34;4960070;28;20502;-61
2021/12/19 07:40:18;;;;;;;41.13;18.27;;;;;;;4.02;100.00;100866.59;4950685;28;20311;-61
2021/12/19 07:42:43;;;;;;;34.47;13.43;;;;;;;4.00;100.00;100869.44;4948493;28;20080;-61
2021/12/19 07:45:10;;;;;;;36.40;12.45;;;;;;;3.99;100.00;100873.06;4950857;28;20435;-61
2021/12/19 07:47:37;;;;;;;32.80;11.35;;;;;;;4.07;100.00;100865.16;4955182;28;20406;-61
2021/12/19 07:50:03;;;;;;;38.33;13.48;;;;;;;4.06;100.00;100867.94;4952599;28;20039;-61
2021/12/19 07:52:29;;;;;;;34.88;13.27;;;;;;;4.16;100.00;100863.34;4945647;28;20197;-61
2021/12/19 07:54:54;;;;;;;41.40;15.95;;;;;;;4.15;100.00;100861.69;4944634;28;20389;-61
2021/12/19 07:57:20;;;;;;;31.15;13.35;;;;;;;4.03;100.00;100876.22;4946334;28;20051;-62
2021/12/19 07:59:45;;;;;;;36.65;15.73;;;;;;;4.03;100.00;100866.44;4950156;28;20037;-62
2021/12/19 08:02:11;;;;;;;32.88;14.63;;;;;;;4.04;100.00;100857.50;4952639;28;20114;-63
2021/12/19 08:04:37;;;;;;;36.88;14.10;;;;;;;4.10;100.00;100862.16;4953133;28;20515;-63
2021/12/19 08:07:02;;;;;;;43.47;16.98;;;;;;;4.06;100.00;100858.16;4950437;28;20131;-61
2021/12/19 08:09:41;;;;;;;50.08;19.20;;;;;;;4.09;100.00;100847.25;4953971;28;20046;-61
2021/12/19 08:12:07;;;;;;;43.25;18.95;;;;;;;4.07;100.00;100841.25;4943307;28;20051;-61
2021/12/19 08:14:32;;;;;;;42.35;17.77;;;;;;;3.99;100.00;100841.22;4951667;28;20122;-61
2021/12/19 08:16:58;;;;;;;43.30;16.23;;;;;;;4.02;100.00;100840.06;4946517;28;20462;-61
2021/12/19 08:19:23;;;;;;;39.58;15.00;;;;;;;4.07;100.00;100835.97;4947305;28;20046;-62
2021/12/19 08:21:49;;;;;;;38.78;16.52;;;;;;;4.02;100.00;100832.97;4955104;28;20047;-62
2021/12/19 08:24:15;;;;;;;47.35;16.92;;;;;;;4.03;100.00;100836.44;4947114;28;20035;-62
2021/12/19 08:26:41;;;;;;;40.03;16.20;;;;;;;4.15;100.00;100834.31;4953291;28;20047;-63
2021/12/19 08:29:06;;;;;;;38.50;17.20;;;;;;;4.15;100.00;100836.97;4947541;28;20470;-62
2021/12/19 08:31:32;;;;;;;41.97;15.50;;;;;;;4.08;100.00;100834.97;4946231;28;20039;-60
2021/12/19 08:33:58;;;;;;;41.33;17.55;;;;;;;4.18;100.00;100837.47;4952558;28;20030;-60
2021/12/19 08:36:24;;;;;;;37.78;14.73;;;;;;;4.20;100.00;100832.03;4953895;28;20042;-61
2021/12/19 08:38:49;;;;;;;33.72;14.70;;;;;;;4.13;100.00;100839.78;4945161;28;20030;-61
2021/12/19 08:41:14;;;;;;;37.22;14.75;;;;;;;4.22;100.00;100845.94;4946729;28;20051;-61
2021/12/19 08:43:40;;;;;;;34.30;12.75;;;;;;;4.24;100.00;100838.66;4949340;28;20103;-60
2021/12/19 08:46:08;;;;;;;36.28;15.45;;;;;;;4.33;100.00;100832.38;4947942;28;20476;-62
2021/12/19 08:48:34;;;;;;;32.17;13.63;;;;;;;4.36;99.53;100823.25;4952918;28;20035;-62
2021/12/19 08:50:59;;;;;;;39.85;14.95;;;;;;;4.33;100.00;100833.19;4954036;28;20643;-62
2021/12/19 08:53:25;;;;;;;41.40;15.45;;;;;;;4.36;100.00;100832.03;4946736;28;20031;-62
2021/12/19 08:55:50;;;;;;;39.33;16.27;;;;;;;4.45;100.00;100836.38;4943722;28;20076;-62
2021/12/19 08:58:16;;;;;;;33.45;15.32;;;;;;;4.28;99.98;100827.53;4953058;28;20023;-62
2021/12/19 09:00:41;;;;;;;40.80;16.20;;;;;;;4.35;100.00;100830.38;4950218;28;20055;-62
2021/12/19 09:03:08;;;;;;;41.80;17.38;;;;;;;4.39;100.00;100831.72;4951196;28;20054;-62
2021/12/19 09:05:34;;;;;;;34.72;14.15;;;;;;;4.30;100.00;100835.34;4944162;28;20466;-62
2021/12/19 09:07:59;;;;;;;31.08;11.82;;;;;;;4.35;100.00;100833.03;4946188;28;20034;-62
2021/12/19 09:10:24;;;;;;;37.22;14.27;;;;;;;4.39;100.00;100836.19;4954295;28;20050;-62
2021/12/19 09:12:50;;;;;;;28.52;11.65;;;;;;;4.29;99.13;100831.88;4947722;28;20130;-62
2021/12/19 09:15:15;;;;;;;41.00;18.02;;;;;;;4.23;100.00;100837.00;4951173;28;20470;-61
2021/12/19 09:17:41;;;;;;;32.72;13.25;;;;;;;4.24;100.00;100833.34;4955251;28;20051;-61
2021/12/19 09:20:07;;;;;;;41.10;18.85;;;;;;;4.24;100.00;100833.34;4947273;28;20086;-61
2021/12/19 09:22:32;;;;;;;34.20;14.65;;;;;;;4.41;100.00;100834.22;4953456;28;20039;-61
2021/12/19 09:24:58;;;;;;;35.08;14.85;;;;;;;4.48;100.00;100830.75;4952102;28;20760;-61
2021/12/19 09:27:23;;;;;;;32.47;13.68;;;;;;;4.43;100.00;100832.22;4963030;28;20047;-61
2021/12/19 09:29:49;;;;;;;37.17;13.85;;;;;;;4.52;99.87;100833.91;4951036;28;20042;-61
2021/12/19 09:32:14;;;;;;;36.33;14.05;;;;;;;4.50;100.00;100831.41;4948164;28;20046;-61
2021/12/19 09:34:40;;;;;;;33.85;12.63;;;;;;;4.42;99.80;100820.78;4947379;28;20122;-61
2021/12/19 09:37:05;;;;;;;36.03;14.57;;;;;;;4.62;99.94;100829.28;4949464;28;20341;-61
2021/12/19 09:39:32;;;;;;;39.33;14.07;;;;;;;4.53;99.76;100822.28;4948767;28;20039;-61
2021/12/19 09:42:00;;;;;;;31.00;11.07;;;;;;;4.39;99.50;100823.75;4957073;28;20508;-61
2021/12/19 09:44:25;;;;;;;36.58;14.10;;;;;;;4.66;100.00;100814.66;4955892;28;20023;-61
2021/12/19 09:46:51;;;;;;;39.58;15.18;;;;;;;4.43;99.68;100813.66;4954630;28;20490;-61
2021/12/19 09:49:19;;;;;;;40.33;14.10;;;;;;;4.38;100.00;100823.94;4948603;28;20510;-61
2021/12/19 09:51:45;;;;;;;33.97;13.57;;;;;;;4.36;100.00;100821.41;4951537;28;20043;-61
2021/12/19 09:54:10;;;;;;;45.63;17.75;;;;;;;4.39;100.00;100818.44;4955860;28;20070;-61
2021/12/19 09:56:36;;;;;;;35.70;14.02;;;;;;;4.39;100.00;100825.56;4954820;28;20094;-61
2021/12/19 09:59:03;;;;;;;40.33;15.70;;;;;;;4.37;100.00;100811.63;4952687;28;20339;-61
2021/12/19 10:01:28;;;;;;;36.58;13.82;;;;;;;4.24;100.00;100806.78;4947313;28;20373;-61
2021/12/19 10:03:54;;;;;;;40.13;15.07;;;;;;;4.30;100.00;100808.81;4951134;28;20037;-61
2021/12/19 10:06:26;;;;;;;44.50;16.70;;;;;;;4.36;100.00;100805.50;4953759;28;20054;-61
2021/12/19 10:09:07;;;;;;;37.50;14.43;;;;;;;4.34;100.00;100796.84;4950220;28;20039;-61
2021/12/19 10:11:46;;;;;;;52.53;18.90;;;;;;;4.39;100.00;100799.84;4956426;28;20047;-61
2021/12/19 10:14:34;;;;;;;34.83;13.75;;;;;;;4.47;99.91;100799.88;4948818;28;20031;-61
2021/12/19 10:17:01;;;;;;;33.45;12.73;;;;;;;4.37;99.89;100795.69;4954900;28;20054;-61
2021/12/19 10:20:03;;;;;;;32.95;11.57;;;;;;;4.43;100.00;100782.59;4950252;28;20077;-60
2021/12/19 10:22:30;;;;;;;30.10;12.63;;;;;;;4.43;100.00;100779.97;4955119;28;20107;-61
2021/12/19 10:24:57;;;;;;;34.22;13.25;;;;;;;4.42;100.00;100778.31;4949914;28;20041;-61
2021/12/19 10:27:38;;;;;;;24.15;9.98;;;;;;;4.41;99.84;100775.81;4952583;28;20438;-61
2021/12/19 10:30:28;;;;;;;32.08;14.05;;;;;;;4.38;99.92;100771.66;4957144;28;20254;-61
2021/12/19 10:33:00;;;;;;;30.17;13.00;;;;;;;4.41;100.00;100759.88;4949999;28;20035;-61
2021/12/19 10:35:32;;;;;;;29.05;13.00;;;;;;;4.44;99.53;100763.06;4950508;28;20110;-61
2021/12/19 10:37:58;;;;;;;35.38;13.73;;;;;;;4.29;100.00;100757.56;4954683;28;20047;-61
2021/12/19 10:40:24;;;;;;;34.17;13.90;;;;;;;4.33;100.00;100760.69;4956279;28;20043;-62
2021/12/19 10:42:53;;;;;;;31.92;12.02;;;;;;;4.36;100.00;100752.41;4957076;28;20031;-61
2021/12/19 10:45:31;;;;;;;36.80;14.25;;;;;;;4.38;100.00;100755.72;4952846;28;20066;-62
2021/12/19 10:48:30;;;;;;;34.53;13.43;;;;;;;4.38;100.00;100747.75;4956511;28;20054;-61
2021/12/19 10:51:17;;;;;;;31.75;12.93;;;;;;;4.41;100.00;100739.47;4923704;28;20057;-62
2021/12/19 10:53:53;;;;;;;28.35;11.60;;;;;;;4.42;100.00;100738.47;4948820;28;20494;-63
2021/12/19 10:56:26;;;;;;;30.63;13.40;;;;;;;4.47;100.00;100746.78;4947934;28;20043;-62
2021/12/19 10:58:58;;;;;;;36.70;14.98;;;;;;;4.40;100.00;100740.47;4950340;28;20034;-62
2021/12/19 11:01:34;;;;;;;27.40;14.50;;;;;;;4.39;100.00;100736.13;4951467;28;20831;-62
2021/12/19 11:04:03;;;;;;;27.92;12.82;;;;;;;4.40;100.00;100731.69;4951461;28;20038;-62
2021/12/19 11:06:33;;;;;;;25.23;11.75;;;;;;;4.38;100.00;100726.53;4954954;28;20122;-61
2021/12/19 11:08:59;;;;;;;24.90;13.15;;;;;;;4.37;100.00;100722.22;4954670;28;20446;-61
2021/12/19 11:11:29;;;;;;;27.33;12.40;;;;;;;4.44;100.00;100722.38;4954710;28;20054;-61
2021/12/19 11:13:55;;;;;;;29.80;14.87;;;;;;;4.57;100.00;100705.94;4952089;28;20050;-61
2021/12/19 11:16:20;;;;;;;17.83;8.93;;;;;;;4.43;100.00;100705.63;4951271;28;20300;-62
2021/12/19 11:18:46;;;;;;;20.63;9.68;;;;;;;4.41;99.66;100709.44;4953936;28;20477;-62
2021/12/19 11:21:11;;;;;;;19.52;8.95;;;;;;;4.36;99.75;100709.94;4950817;28;20047;-62
2021/12/19 11:23:37;;;;;;;19.42;8.15;;;;;;;4.42;99.66;100701.31;4952715;28;20039;-61
2021/12/19 11:26:02;;;;;;;22.73;9.25;;;;;;;4.49;99.85;100699.66;4952484;28;20035;-62
2021/12/19 11:28:27;;;;;;;18.98;8.32;;;;;;;4.50;99.41;100695.19;4950711;28;20031;-61
2021/12/19 11:30:53;;;;;;;19.80;8.75;;;;;;;4.57;98.40;100697.97;4932272;29;20269;-62
2021/12/19 11:33:37;;;;;;;14.65;7.35;;;;;;;4.56;95.97;100677.72;4941969;28;20057;-62
2021/12/19 11:36:02;;;;;;;13.20;7.00;;;;;;;4.49;96.19;100673.09;4951128;28;20050;-61
2021/12/19 11:38:29;;;;;;;17.02;9.38;;;;;;;4.36;97.49;100666.63;4947279;28;20030;-62
2021/12/19 11:40:54;;;;;;;21.48;9.55;;;;;;;4.37;98.32;100679.75;4954305;28;20050;-70
2021/12/19 11:43:19;;;;;;;20.88;11.57;;;;;;;4.33;98.43;100673.09;4960143;28;20058;-61
2021/12/19 11:45:57;;;;;;;22.85;10.85;;;;;;;4.23;98.04;100667.13;4956894;28;20129;-63
2021/12/19 11:48:27;;;;;;;20.92;10.98;;;;;;;4.33;98.05;100665.13;4932917;28;20039;-61
2021/12/19 11:51:06;;;;;;;24.52;11.48;;;;;;;4.36;98.56;100656.84;4947462;28;20106;-61
2021/12/19 11:53:37;;;;;;;15.88;8.60;;;;;;;4.32;97.74;100643.09;4953355;28;20110;-61
2021/12/19 11:56:16;;;;;;;21.65;10.43;;;;;;;4.25;99.25;100643.91;4951127;28;20047;-61
2021/12/19 11:58:45;;;;;;;18.33;9.00;;;;;;;4.29;99.60;100645.22;4950603;28;20027;-62
2021/12/19 12:01:21;;;;;;;25.02;12.48;;;;;;;4.31;100.00;100648.53;4946035;28;20081;-62
2021/12/19 12:03:55;;;;;;;27.02;12.88;;;;;;;4.25;100.00;100639.44;4956934;28;20517;-62
2021/12/19 12:06:25;;;;;;;21.13;11.20;;;;;;;4.25;100.00;100633.31;4957556;28;20046;-62
2021/12/19 12:09:04;;;;;;;22.52;11.68;;;;;;;4.30;100.00;100634.44;4958315;28;20031;-62
2021/12/19 12:11:30;;;;;;;23.65;12.13;;;;;;;4.26;99.93;100622.50;4954365;28;20628;-62
2021/12/19 12:14:26;;;;;;;21.27;11.07;;;;;;;4.32;99.18;100623.69;4957641;28;20038;-62
2021/12/19 12:17:08;;;;;;;21.90;11.35;;;;;;;4.40;99.11;100621.00;4959263;28;20504;-61
2021/12/19 12:19:49;;;;;;;24.92;13.00;;;;;;;4.37;98.98;100616.03;4955395;28;20545;-61
2021/12/19 12:22:27;;;;;;;20.23;10.63;;;;;;;4.26;97.93;100619.03;4959740;28;20039;-62